FDB26 OBBI-OMDB
Flight info
| Callsign | FDB26 |
|---|---|
| Flight time | N/A |
| Altitude | 25000 |
| Route | BHR N697 SODAK P559 VUTEB |
| Aircraft | B738/M-SDE2E3FGHIRWXY/LB1 |
Departure
| Time | 2026-04-27 13:29 |
|---|---|
| Airport | Bahrain International Airport (OBBI) |
Arrival
| Time | N/A |
|---|---|
| Airport | Dubai International Airport (OMDB) |
| Time | Latitude | Longitude | Altitude | Speed | Heading |
|---|---|---|---|---|---|
| 2026-04-27 12:51 | 26.27133 | 50.62491 | 7 ft | 0 kts | 214° |
| 2026-04-27 13:16 | 26.27138 | 50.62495 | 16 ft | 2 kts | 214° |
| 2026-04-27 13:17 | 26.27154 | 50.62508 | 17 ft | 3 kts | 213° |
| 2026-04-27 13:17 | 26.27172 | 50.62520 | 18 ft | 3 kts | 211° |
| 2026-04-27 13:17 | 26.27189 | 50.62531 | 20 ft | 3 kts | 206° |
| 2026-04-27 13:17 | 26.27207 | 50.62540 | 20 ft | 3 kts | 187° |
| 2026-04-27 13:18 | 26.27223 | 50.62539 | 17 ft | 2 kts | 137° |
| 2026-04-27 13:18 | 26.27227 | 50.62536 | 17 ft | 0 kts | 124° |
| 2026-04-27 13:24 | 26.27224 | 50.62540 | 16 ft | 2 kts | 122° |
| 2026-04-27 13:24 | 26.27209 | 50.62567 | 16 ft | 1 kts | 119° |
| 2026-04-27 13:25 | 26.27198 | 50.62593 | 16 ft | 6 kts | 107° |
| 2026-04-27 13:25 | 26.27220 | 50.62639 | 16 ft | 9 kts | 35° |
| 2026-04-27 13:25 | 26.27287 | 50.62659 | 16 ft | 12 kts | 341° |
| 2026-04-27 13:25 | 26.27342 | 50.62576 | 16 ft | 15 kts | 301° |
| 2026-04-27 13:26 | 26.27381 | 50.62504 | 16 ft | 17 kts | 301° |
| 2026-04-27 13:26 | 26.27480 | 50.62335 | 18 ft | 21 kts | 304° |
| 2026-04-27 13:26 | 26.27567 | 50.62190 | 16 ft | 24 kts | 303° |
| 2026-04-27 13:26 | 26.27654 | 50.62038 | 17 ft | 23 kts | 303° |
| 2026-04-27 13:27 | 26.27741 | 50.61893 | 16 ft | 22 kts | 303° |
| 2026-04-27 13:27 | 26.27796 | 50.61796 | 17 ft | 22 kts | 302° |
| 2026-04-27 13:27 | 26.27883 | 50.61664 | 17 ft | 21 kts | 327° |
| 2026-04-27 13:27 | 26.27986 | 50.61673 | 18 ft | 9 kts | 30° |
| 2026-04-27 13:28 | 26.28016 | 50.61701 | 19 ft | 9 kts | 58° |
| 2026-04-27 13:28 | 26.28007 | 50.61769 | 20 ft | 10 kts | 123° |
| 2026-04-27 13:28 | 26.28005 | 50.61773 | 20 ft | 0 kts | 124° |
| 2026-04-27 13:28 | 26.28001 | 50.61779 | 19 ft | 5 kts | 124° |
| 2026-04-27 13:29 | 26.27874 | 50.61998 | 20 ft | 71 kts | 122° |
| 2026-04-27 13:29 | 26.27477 | 50.62685 | 16 ft | 138 kts | 123° |
| 2026-04-27 13:29 | 26.26870 | 50.63739 | 180 ft | 179 kts | 122° |
| 2026-04-27 13:29 | 26.26160 | 50.64963 | 779 ft | 194 kts | 115° |
| 2026-04-27 13:30 | 26.25887 | 50.66441 | 1523 ft | 198 kts | 85° |
| 2026-04-27 13:30 | 26.26092 | 50.67957 | 2401 ft | 199 kts | 78° |
| 2026-04-27 13:30 | 26.26349 | 50.69493 | 3170 ft | 203 kts | 78° |
| 2026-04-27 13:30 | 26.26619 | 50.71029 | 3371 ft | 199 kts | 78° |
| 2026-04-27 13:31 | 26.26878 | 50.72483 | 3461 ft | 184 kts | 78° |
| 2026-04-27 13:31 | 26.27147 | 50.73862 | 3581 ft | 181 kts | 75° |
| 2026-04-27 13:31 | 26.27449 | 50.75221 | 3726 ft | 182 kts | 75° |
| 2026-04-27 13:31 | 26.27764 | 50.76611 | 3957 ft | 196 kts | 73° |
| 2026-04-27 13:32 | 26.28559 | 50.77937 | 4187 ft | 221 kts | 32° |
| 2026-04-27 13:32 | 26.30027 | 50.78635 | 4398 ft | 242 kts | 16° |
| 2026-04-27 13:32 | 26.31664 | 50.79301 | 4780 ft | 256 kts | 19° |
| 2026-04-27 13:32 | 26.33371 | 50.80099 | 5122 ft | 277 kts | 22° |
| 2026-04-27 13:33 | 26.35145 | 50.81032 | 5819 ft | 284 kts | 24° |
| 2026-04-27 13:33 | 26.36912 | 50.82043 | 6646 ft | 287 kts | 25° |
| 2026-04-27 13:33 | 26.38682 | 50.83115 | 7417 ft | 291 kts | 26° |
| 2026-04-27 13:33 | 26.40435 | 50.84218 | 8158 ft | 296 kts | 26° |
| 2026-04-27 13:34 | 26.42250 | 50.85390 | 8969 ft | 300 kts | 27° |
| 2026-04-27 13:34 | 26.44059 | 50.86577 | 9755 ft | 304 kts | 27° |
| 2026-04-27 13:34 | 26.45867 | 50.87777 | 10402 ft | 312 kts | 27° |
| 2026-04-27 13:34 | 26.47804 | 50.89065 | 10601 ft | 337 kts | 27° |
| 2026-04-27 13:35 | 26.49885 | 50.90456 | 10779 ft | 360 kts | 28° |
| 2026-04-27 13:35 | 26.52071 | 50.91926 | 11144 ft | 373 kts | 28° |
| 2026-04-27 13:35 | 26.54310 | 50.93438 | 11756 ft | 378 kts | 28° |
| 2026-04-27 13:35 | 26.56569 | 50.94966 | 12450 ft | 381 kts | 28° |
| 2026-04-27 13:36 | 26.58847 | 50.96507 | 13125 ft | 385 kts | 28° |
| 2026-04-27 13:36 | 26.61153 | 50.98066 | 13746 ft | 389 kts | 28° |
| 2026-04-27 13:36 | 26.63482 | 50.99641 | 14312 ft | 393 kts | 28° |
| 2026-04-27 13:36 | 26.65835 | 51.01232 | 14889 ft | 397 kts | 27° |
| 2026-04-27 13:37 | 26.68206 | 51.02836 | 15509 ft | 399 kts | 27° |
| 2026-04-27 13:37 | 26.70593 | 51.04451 | 16116 ft | 403 kts | 27° |
| 2026-04-27 13:37 | 26.72939 | 51.06201 | 16643 ft | 412 kts | 38° |
| 2026-04-27 13:37 | 26.74757 | 51.08719 | 17157 ft | 423 kts | 60° |
| 2026-04-27 13:38 | 26.75717 | 51.11844 | 17704 ft | 430 kts | 81° |
| 2026-04-27 13:38 | 26.75703 | 51.15191 | 18208 ft | 433 kts | 102° |
| 2026-04-27 13:38 | 26.74828 | 51.18411 | 18665 ft | 434 kts | 112° |
| 2026-04-27 13:38 | 26.73765 | 51.21595 | 19100 ft | 439 kts | 113° |
| 2026-04-27 13:39 | 26.72673 | 51.24800 | 19531 ft | 443 kts | 113° |
| 2026-04-27 13:39 | 26.71585 | 51.28040 | 19978 ft | 447 kts | 113° |
| 2026-04-27 13:39 | 26.70509 | 51.31313 | 20436 ft | 450 kts | 112° |
| 2026-04-27 13:39 | 26.69438 | 51.34626 | 20875 ft | 454 kts | 112° |
| 2026-04-27 13:40 | 26.68367 | 51.37965 | 21317 ft | 458 kts | 112° |
| 2026-04-27 13:40 | 26.67289 | 51.41322 | 21754 ft | 461 kts | 112° |
| 2026-04-27 13:40 | 26.66200 | 51.44707 | 22182 ft | 464 kts | 112° |
| 2026-04-27 13:40 | 26.65117 | 51.48072 | 22601 ft | 468 kts | 112° |
| 2026-04-27 13:41 | 26.64013 | 51.51506 | 23006 ft | 471 kts | 112° |
| 2026-04-27 13:41 | 26.62902 | 51.54964 | 23414 ft | 474 kts | 112° |
| 2026-04-27 13:41 | 26.61785 | 51.58437 | 23744 ft | 477 kts | 112° |
| 2026-04-27 13:41 | 26.60661 | 51.61930 | 24076 ft | 479 kts | 112° |
| 2026-04-27 13:42 | 26.59529 | 51.65446 | 24404 ft | 482 kts | 112° |
| 2026-04-27 13:42 | 26.58389 | 51.68980 | 24719 ft | 484 kts | 112° |
| 2026-04-27 13:42 | 26.57240 | 51.72531 | 24789 ft | 489 kts | 113° |
| 2026-04-27 13:42 | 26.56075 | 51.76106 | 24790 ft | 489 kts | 113° |
| 2026-04-27 13:43 | 26.54924 | 51.79664 | 24789 ft | 485 kts | 112° |
| 2026-04-27 13:43 | 26.53786 | 51.83205 | 24792 ft | 484 kts | 112° |
| 2026-04-27 13:43 | 26.52645 | 51.86746 | 24799 ft | 485 kts | 112° |
| 2026-04-27 13:43 | 26.51489 | 51.90289 | 24800 ft | 486 kts | 113° |
| 2026-04-27 13:44 | 26.50312 | 51.93827 | 24799 ft | 487 kts | 113° |
| 2026-04-27 13:44 | 26.49124 | 51.97371 | 24797 ft | 487 kts | 113° |
| 2026-04-27 13:44 | 26.47937 | 52.00914 | 24789 ft | 487 kts | 113° |
| 2026-04-27 13:44 | 26.46753 | 52.04455 | 24791 ft | 487 kts | 113° |
| 2026-04-27 13:45 | 26.45568 | 52.08004 | 24789 ft | 487 kts | 113° |
| 2026-04-27 13:45 | 26.44387 | 52.11542 | 24791 ft | 487 kts | 113° |
| 2026-04-27 13:45 | 26.43204 | 52.15079 | 24791 ft | 486 kts | 113° |
| 2026-04-27 13:45 | 26.42025 | 52.18599 | 24786 ft | 482 kts | 113° |
| 2026-04-27 13:46 | 26.40855 | 52.22085 | 24653 ft | 481 kts | 113° |
| 2026-04-27 13:46 | 26.39685 | 52.25560 | 23551 ft | 488 kts | 112° |
| 2026-04-27 13:46 | 26.38464 | 52.29189 | 21999 ft | 497 kts | 112° |
| 2026-04-27 13:46 | 26.37245 | 52.32815 | 20564 ft | 501 kts | 111° |
| 2026-04-27 13:47 | 26.36034 | 52.36415 | 19940 ft | 487 kts | 111° |
| 2026-04-27 13:47 | 26.34887 | 52.39785 | 20216 ft | 450 kts | 113° |
| 2026-04-27 13:47 | 26.33741 | 52.42868 | 21128 ft | 420 kts | 115° |
| 2026-04-27 13:47 | 26.32591 | 52.45822 | 22095 ft | 410 kts | 115° |
| 2026-04-27 13:48 | 26.31460 | 52.48703 | 23080 ft | 400 kts | 116° |
| 2026-04-27 13:48 | 26.30367 | 52.51506 | 23987 ft | 388 kts | 116° |
| 2026-04-27 13:48 | 26.29301 | 52.54260 | 24552 ft | 389 kts | 116° |
| 2026-04-27 13:48 | 26.28217 | 52.57067 | 24802 ft | 399 kts | 116° |
| 2026-04-27 13:49 | 26.27100 | 52.59970 | 24799 ft | 416 kts | 116° |
| 2026-04-27 13:49 | 26.25939 | 52.62995 | 24810 ft | 432 kts | 116° |
| 2026-04-27 13:49 | 26.24735 | 52.66130 | 24807 ft | 448 kts | 116° |
| 2026-04-27 13:49 | 26.23490 | 52.69375 | 24804 ft | 462 kts | 115° |
| 2026-04-27 13:50 | 26.22209 | 52.72712 | 24798 ft | 475 kts | 115° |
| 2026-04-27 13:50 | 26.20895 | 52.76137 | 24805 ft | 487 kts | 115° |
| 2026-04-27 13:50 | 26.19569 | 52.79593 | 24803 ft | 497 kts | 115° |
| 2026-04-27 13:50 | 26.18200 | 52.83161 | 24797 ft | 506 kts | 115° |
| 2026-04-27 13:51 | 26.16807 | 52.86791 | 24794 ft | 514 kts | 115° |
| 2026-04-27 13:51 | 26.15392 | 52.90473 | 24786 ft | 520 kts | 115° |
| 2026-04-27 13:51 | 26.13960 | 52.94197 | 24780 ft | 526 kts | 115° |
| 2026-04-27 13:51 | 26.12493 | 52.98008 | 24774 ft | 531 kts | 115° |
| 2026-04-27 13:52 | 26.11051 | 53.01749 | 24773 ft | 535 kts | 115° |
| 2026-04-27 13:52 | 26.09590 | 53.05557 | 24771 ft | 535 kts | 115° |
| 2026-04-27 13:52 | 26.08166 | 53.09384 | 24768 ft | 535 kts | 114° |
| 2026-04-27 13:52 | 26.06770 | 53.13213 | 24775 ft | 534 kts | 114° |
| 2026-04-27 13:53 | 26.03984 | 53.20882 | 24772 ft | 534 kts | 114° |
| 2026-04-27 13:53 | 26.02585 | 53.24708 | 24770 ft | 534 kts | 114° |
| 2026-04-27 13:53 | 26.01182 | 53.28529 | 24774 ft | 534 kts | 114° |
| 2026-04-27 13:54 | 25.99772 | 53.32353 | 24776 ft | 534 kts | 114° |
| 2026-04-27 13:54 | 25.98362 | 53.36174 | 24773 ft | 534 kts | 114° |
| 2026-04-27 13:54 | 25.96966 | 53.39955 | 24758 ft | 518 kts | 114° |
| 2026-04-27 13:54 | 25.95629 | 53.43579 | 24729 ft | 496 kts | 114° |
| 2026-04-27 13:55 | 25.94336 | 53.47080 | 24410 ft | 485 kts | 114° |
| 2026-04-27 13:55 | 25.93065 | 53.50522 | 23950 ft | 479 kts | 114° |
| 2026-04-27 13:55 | 25.91857 | 53.53952 | 23513 ft | 475 kts | 112° |
| 2026-04-27 13:55 | 25.90692 | 53.57375 | 23018 ft | 472 kts | 112° |
| 2026-04-27 13:56 | 25.89542 | 53.60779 | 22510 ft | 469 kts | 112° |
| 2026-04-27 13:56 | 25.88395 | 53.64155 | 22000 ft | 466 kts | 112° |
| 2026-04-27 13:56 | 25.87245 | 53.67507 | 21493 ft | 462 kts | 112° |
| 2026-04-27 13:56 | 25.86101 | 53.70822 | 21001 ft | 458 kts | 112° |
| 2026-04-27 13:57 | 25.84962 | 53.74109 | 20515 ft | 454 kts | 112° |
| 2026-04-27 13:57 | 25.83845 | 53.77315 | 20047 ft | 449 kts | 112° |
| 2026-04-27 13:57 | 25.82721 | 53.80532 | 19606 ft | 444 kts | 112° |
| 2026-04-27 13:57 | 25.81612 | 53.83707 | 19188 ft | 439 kts | 113° |
| 2026-04-27 13:58 | 25.80503 | 53.86883 | 18766 ft | 433 kts | 112° |
| 2026-04-27 13:58 | 25.79419 | 53.89985 | 18358 ft | 428 kts | 112° |
| 2026-04-27 13:58 | 25.78348 | 53.93049 | 17935 ft | 424 kts | 112° |
| 2026-04-27 13:58 | 25.77287 | 53.96081 | 17476 ft | 420 kts | 112° |
| 2026-04-27 13:59 | 25.76248 | 53.99048 | 17029 ft | 416 kts | 112° |
| 2026-04-27 13:59 | 25.75212 | 54.02031 | 16580 ft | 413 kts | 111° |
| 2026-04-27 13:59 | 25.74256 | 54.05027 | 16136 ft | 411 kts | 110° |
| 2026-04-27 13:59 | 25.73347 | 54.08022 | 15735 ft | 408 kts | 109° |
| 2026-04-27 14:00 | 25.72456 | 54.10991 | 15378 ft | 404 kts | 109° |
| 2026-04-27 14:00 | 25.71568 | 54.13932 | 15019 ft | 401 kts | 109° |
| 2026-04-27 14:00 | 25.70661 | 54.16904 | 14683 ft | 416 kts | 109° |
| 2026-04-27 14:00 | 25.69715 | 54.19980 | 14340 ft | 424 kts | 109° |
| 2026-04-27 14:01 | 25.68759 | 54.23074 | 13994 ft | 423 kts | 109° |
| 2026-04-27 14:01 | 25.67813 | 54.26134 | 13644 ft | 416 kts | 109° |
| 2026-04-27 14:01 | 25.66885 | 54.29130 | 13266 ft | 407 kts | 109° |
| 2026-04-27 14:01 | 25.65975 | 54.32066 | 12884 ft | 399 kts | 109° |
| 2026-04-27 14:02 | 25.65082 | 54.34949 | 12502 ft | 393 kts | 108° |
| 2026-04-27 14:02 | 25.64203 | 54.37812 | 12128 ft | 391 kts | 108° |
| 2026-04-27 14:02 | 25.63336 | 54.40650 | 11760 ft | 388 kts | 108° |
| 2026-04-27 14:02 | 25.62473 | 54.43473 | 11397 ft | 385 kts | 108° |
| 2026-04-27 14:03 | 25.61615 | 54.46275 | 11039 ft | 383 kts | 107° |
| 2026-04-27 14:03 | 25.60753 | 54.49087 | 10699 ft | 386 kts | 107° |
| 2026-04-27 14:03 | 25.59886 | 54.51916 | 10361 ft | 389 kts | 107° |
| 2026-04-27 14:03 | 25.59014 | 54.54751 | 10043 ft | 387 kts | 107° |
| 2026-04-27 14:04 | 25.58320 | 54.57624 | 9993 ft | 386 kts | 96° |
| 2026-04-27 14:04 | 25.58091 | 54.60566 | 9983 ft | 382 kts | 86° |
| 2026-04-27 14:04 | 25.58313 | 54.63476 | 9984 ft | 378 kts | 78° |
| 2026-04-27 14:04 | 25.58695 | 54.66356 | 9980 ft | 378 kts | 77° |
| 2026-04-27 14:05 | 25.59093 | 54.69226 | 9975 ft | 377 kts | 77° |
| 2026-04-27 14:05 | 25.59482 | 54.72097 | 9981 ft | 377 kts | 78° |
| 2026-04-27 14:05 | 25.59858 | 54.74970 | 9982 ft | 377 kts | 78° |
| 2026-04-27 14:05 | 25.60227 | 54.77851 | 9982 ft | 377 kts | 78° |
| 2026-04-27 14:06 | 25.60584 | 54.80684 | 9977 ft | 377 kts | 78° |
| 2026-04-27 14:06 | 25.60950 | 54.83600 | 9978 ft | 377 kts | 78° |
| 2026-04-27 14:06 | 25.61036 | 54.86513 | 9967 ft | 383 kts | 95° |
| 2026-04-27 14:06 | 25.60267 | 54.89340 | 9989 ft | 386 kts | 111° |
| 2026-04-27 14:07 | 25.59174 | 54.92059 | 9981 ft | 387 kts | 113° |
| 2026-04-27 14:07 | 25.58066 | 54.94734 | 9977 ft | 387 kts | 113° |
| 2026-04-27 14:07 | 25.56959 | 54.97455 | 9970 ft | 387 kts | 112° |
| 2026-04-27 14:07 | 25.55875 | 55.00179 | 9968 ft | 385 kts | 112° |
| 2026-04-27 14:08 | 25.54802 | 55.02897 | 9903 ft | 387 kts | 112° |
| 2026-04-27 14:08 | 25.53613 | 55.05574 | 9660 ft | 386 kts | 117° |
| 2026-04-27 14:08 | 25.52273 | 55.08138 | 9407 ft | 383 kts | 120° |
| 2026-04-27 14:08 | 25.50904 | 55.10658 | 9157 ft | 381 kts | 120° |
| 2026-04-27 14:09 | 25.49552 | 55.13179 | 8915 ft | 379 kts | 119° |
| 2026-04-27 14:09 | 25.48230 | 55.15693 | 8667 ft | 377 kts | 118° |
| 2026-04-27 14:09 | 25.46926 | 55.18199 | 8420 ft | 374 kts | 118° |
| 2026-04-27 14:09 | 25.45567 | 55.20629 | 8164 ft | 369 kts | 126° |
| 2026-04-27 14:10 | 25.43922 | 55.22776 | 8027 ft | 364 kts | 132° |
| 2026-04-27 14:10 | 25.42173 | 55.24807 | 7987 ft | 364 kts | 133° |
| 2026-04-27 14:10 | 25.40438 | 55.26828 | 7979 ft | 361 kts | 132° |
| 2026-04-27 14:10 | 25.38753 | 55.28849 | 7967 ft | 353 kts | 131° |
| 2026-04-27 14:11 | 25.37129 | 55.30832 | 7962 ft | 343 kts | 131° |
| 2026-04-27 14:11 | 25.35483 | 55.32717 | 7840 ft | 339 kts | 141° |
| 2026-04-27 14:11 | 25.33494 | 55.34054 | 7701 ft | 330 kts | 153° |
| 2026-04-27 14:11 | 25.31484 | 55.35197 | 7555 ft | 321 kts | 154° |
| 2026-04-27 14:12 | 25.29519 | 55.36304 | 7396 ft | 313 kts | 154° |
| 2026-04-27 14:12 | 25.27605 | 55.37396 | 7247 ft | 306 kts | 153° |
| 2026-04-27 14:12 | 25.25758 | 55.38461 | 7035 ft | 302 kts | 153° |
| 2026-04-27 14:12 | 25.23889 | 55.39548 | 6681 ft | 304 kts | 153° |
| 2026-04-27 14:13 | 25.22020 | 55.40641 | 6394 ft | 304 kts | 153° |
| 2026-04-27 14:13 | 25.20148 | 55.41736 | 6061 ft | 303 kts | 153° |
| 2026-04-27 14:13 | 25.18291 | 55.42822 | 5721 ft | 300 kts | 153° |
| 2026-04-27 14:13 | 25.16452 | 55.43898 | 5388 ft | 297 kts | 153° |
| 2026-04-27 14:14 | 25.14632 | 55.44962 | 5059 ft | 295 kts | 153° |
| 2026-04-27 14:14 | 25.12829 | 55.46015 | 4732 ft | 292 kts | 153° |
| 2026-04-27 14:14 | 25.11673 | 55.46756 | 4506 ft | 290 kts | 143° |
| 2026-04-27 14:14 | 25.10343 | 55.48391 | 4162 ft | 285 kts | 122° |